createdAt,value
2017-11-03T00:00:50.448Z,76.50
2017-11-03T00:03:19.911Z,76.70
2017-11-03T00:05:48.599Z,76.70
2017-11-03T00:08:17.273Z,76.70
2017-11-03T00:10:45.969Z,76.60
2017-11-03T00:13:14.638Z,76.00
2017-11-03T00:15:43.314Z,76.50
2017-11-03T00:18:12.010Z,76.10
2017-11-03T00:20:40.685Z,75.50
2017-11-03T00:23:09.364Z,76.00
2017-11-03T00:25:38.072Z,76.10
2017-11-03T00:28:06.759Z,75.90
2017-11-03T00:30:35.451Z,74.80
2017-11-03T00:33:04.138Z,75.00
2017-11-03T00:35:32.813Z,74.40
2017-11-03T00:38:01.491Z,74.00
2017-11-03T00:40:30.170Z,74.30
2017-11-03T00:42:58.841Z,75.20
2017-11-03T00:45:28.546Z,75.60
2017-11-03T00:47:57.223Z,75.60
2017-11-03T00:50:25.885Z,75.60
2017-11-03T00:52:54.587Z,75.80
2017-11-03T00:55:23.253Z,75.60
2017-11-03T00:57:51.923Z,75.40
2017-11-03T01:00:20.615Z,74.90
2017-11-03T01:02:49.281Z,75.30
2017-11-03T01:05:17.943Z,74.50
2017-11-03T01:07:46.455Z,74.80
2017-11-03T01:10:15.123Z,74.50
2017-11-03T01:12:44.555Z,74.50
2017-11-03T01:15:13.026Z,74.50
2017-11-03T01:17:41.696Z,74.30
2017-11-03T01:20:11.130Z,74.30
2017-11-03T01:22:39.844Z,74.30
2017-11-03T01:25:08.522Z,74.50
2017-11-03T01:27:37.191Z,74.70
2017-11-03T01:30:05.879Z,74.10
2017-11-03T01:32:34.604Z,74.10
2017-11-03T01:35:02.944Z,74.30
2017-11-03T01:37:31.607Z,74.40
2017-11-03T01:40:00.333Z,73.80
2017-11-03T01:42:29.006Z,73.60
2017-11-03T01:44:57.677Z,74.00
2017-11-03T01:47:26.355Z,73.90
2017-11-03T01:49:55.022Z,73.80
2017-11-03T01:52:23.773Z,71.90
2017-11-03T01:54:52.457Z,71.30
2017-11-03T01:57:21.142Z,72.20
2017-11-03T01:59:49.837Z,69.70
2017-11-03T02:02:18.500Z,69.90
2017-11-03T02:04:46.962Z,66.60
2017-11-03T02:07:15.384Z,65.80
2017-11-03T02:09:44.559Z,64.50
2017-11-03T02:12:12.987Z,64.50
2017-11-03T02:14:41.382Z,63.60
2017-11-03T02:17:10.049Z,63.50
2017-11-03T02:19:37.796Z,63.10
2017-11-03T02:22:05.520Z,62.90
2017-11-03T02:24:33.941Z,63.00
2017-11-03T02:27:02.389Z,62.60
2017-11-03T02:29:31.821Z,62.30
2017-11-03T02:32:00.999Z,62.50
2017-11-03T02:34:29.096Z,62.40
2017-11-03T02:36:58.281Z,62.70
2017-11-03T02:39:26.690Z,62.70
2017-11-03T02:41:55.135Z,62.60
2017-11-03T02:44:22.853Z,62.40
2017-11-03T02:46:51.278Z,62.90
2017-11-03T02:49:19.697Z,63.10
2017-11-03T02:51:48.100Z,62.70
2017-11-03T02:54:16.521Z,62.90
2017-11-03T02:56:44.939Z,62.90
2017-11-03T02:59:13.352Z,62.50
2017-11-03T03:01:41.787Z,62.40
2017-11-03T03:04:10.958Z,63.10
2017-11-03T03:06:39.363Z,63.00
2017-11-03T03:09:08.575Z,62.80
2017-11-03T03:11:36.988Z,63.40
2017-11-03T03:14:05.400Z,62.80
2017-11-03T03:16:33.862Z,62.70
2017-11-03T03:19:01.920Z,62.90
2017-11-03T03:21:30.330Z,62.80
2017-11-03T03:23:58.409Z,63.10
2017-11-03T03:26:26.621Z,63.00
2017-11-03T03:28:55.030Z,62.90
2017-11-03T03:31:23.468Z,62.60
2017-11-03T03:33:52.293Z,62.50
2017-11-03T03:36:20.712Z,63.20
2017-11-03T03:38:49.139Z,62.40
2017-11-03T03:41:17.550Z,62.70
2017-11-03T03:43:45.959Z,62.80
2017-11-03T03:46:14.064Z,62.70
2017-11-03T03:48:41.818Z,63.80
2017-11-03T03:51:10.990Z,62.90
2017-11-03T03:53:39.425Z,62.90
2017-11-03T03:56:07.497Z,62.80
2017-11-03T03:58:35.927Z,63.00
2017-11-03T04:01:04.342Z,63.30
2017-11-03T04:03:32.755Z,63.10
2017-11-03T04:06:01.191Z,63.40
2017-11-03T04:08:30.388Z,63.40
2017-11-03T04:10:58.866Z,63.40
2017-11-03T04:13:28.063Z,63.20
2017-11-03T04:15:57.250Z,63.50
2017-11-03T04:18:25.671Z,63.40
2017-11-03T04:20:54.092Z,63.60
2017-11-03T04:23:22.506Z,63.50
2017-11-03T04:25:51.011Z,63.70
2017-11-03T04:28:19.415Z,63.60
2017-11-03T04:30:47.483Z,63.50
2017-11-03T04:33:15.928Z,63.40
2017-11-03T04:35:45.117Z,64.00
2017-11-03T04:38:14.299Z,63.40
2017-11-03T04:40:44.034Z,64.40
2017-11-03T04:43:13.214Z,64.40
2017-11-03T04:45:40.932Z,64.40
2017-11-03T04:48:09.363Z,64.20
2017-11-03T04:50:37.780Z,64.60
2017-11-03T04:53:05.506Z,65.00
2017-11-03T04:55:33.616Z,66.00
2017-11-03T04:58:02.113Z,67.00
2017-11-03T05:00:30.522Z,67.90
2017-11-03T05:02:59.215Z,67.60
2017-11-03T05:05:27.662Z,68.30
2017-11-03T05:07:56.102Z,68.70
2017-11-03T05:10:25.279Z,69.00
2017-11-03T05:12:53.716Z,69.10
2017-11-03T05:15:22.128Z,69.40
2017-11-03T05:17:50.546Z,69.80
2017-11-03T05:20:19.779Z,70.80
2017-11-03T05:22:48.200Z,70.80
2017-11-03T05:25:16.608Z,71.70
2017-11-03T05:27:45.838Z,71.70
2017-11-03T05:30:14.244Z,71.70
2017-11-03T05:32:42.716Z,72.10
2017-11-03T05:35:10.455Z,72.60
2017-11-03T05:37:38.858Z,72.40
2017-11-03T05:40:06.918Z,72.30
2017-11-03T05:42:36.377Z,73.60
2017-11-03T05:45:05.213Z,73.40
2017-11-03T05:47:33.626Z,73.40
2017-11-03T05:50:02.341Z,73.90
2017-11-03T05:52:31.528Z,74.10
2017-11-03T05:54:59.856Z,74.10
2017-11-03T05:57:28.310Z,74.20
2017-11-03T05:59:57.487Z,74.80
2017-11-03T06:02:25.988Z,74.00
2017-11-03T06:04:54.903Z,74.00
2017-11-03T06:07:23.295Z,74.30
2017-11-03T06:09:52.730Z,75.00
2017-11-03T06:12:21.286Z,74.90
2017-11-03T06:14:49.799Z,75.00
2017-11-03T06:17:18.476Z,74.80
2017-11-03T06:19:47.190Z,75.50
2017-11-03T06:22:15.863Z,76.00
2017-11-03T06:24:44.521Z,75.90
2017-11-03T06:27:13.993Z,74.90
2017-11-03T06:29:42.668Z,74.90
2017-11-03T06:32:11.341Z,74.70
2017-11-03T06:34:40.032Z,74.60
2017-11-03T06:37:08.693Z,74.90
2017-11-03T06:39:37.012Z,75.00
2017-11-03T06:42:05.726Z,75.20
2017-11-03T06:44:35.189Z,75.40
2017-11-03T06:47:04.134Z,75.40
2017-11-03T06:49:32.817Z,75.70
2017-11-03T06:52:01.238Z,75.00
2017-11-03T06:54:29.925Z,74.70
2017-11-03T06:56:58.332Z,74.90
2017-11-03T06:59:26.809Z,74.70
2017-11-03T07:01:55.761Z,74.70
2017-11-03T07:04:24.444Z,74.60
2017-11-03T07:06:53.869Z,74.50
2017-11-03T07:09:22.300Z,74.50
2017-11-03T07:11:50.368Z,74.20
2017-11-03T07:14:19.034Z,74.70
2017-11-03T07:16:48.509Z,74.70
2017-11-03T07:19:16.942Z,75.20
2017-11-03T07:21:45.644Z,74.50
2017-11-03T07:24:14.092Z,73.00
2017-11-03T07:26:43.265Z,72.70
2017-11-03T07:29:11.669Z,72.70
2017-11-03T07:31:40.885Z,72.10
2017-11-03T07:34:09.369Z,72.10
2017-11-03T07:36:38.014Z,70.30
2017-11-03T07:39:06.453Z,69.70
2017-11-03T07:41:34.850Z,69.90
2017-11-03T07:44:03.259Z,69.90
2017-11-03T07:46:31.690Z,69.70
2017-11-03T07:49:00.113Z,70.20
2017-11-03T07:51:28.550Z,70.60
2017-11-03T07:53:57.006Z,70.30
2017-11-03T07:56:25.450Z,69.30
2017-11-03T07:58:53.560Z,67.90
2017-11-03T08:01:22.751Z,67.80
2017-11-03T08:03:51.992Z,67.80
2017-11-03T08:06:20.418Z,67.80
2017-11-03T08:08:48.839Z,67.40
2017-11-03T08:11:17.297Z,67.70
2017-11-03T08:13:46.483Z,66.30
2017-11-03T08:16:14.930Z,66.30
2017-11-03T08:18:43.370Z,67.10
2017-11-03T08:21:11.789Z,67.20
2017-11-03T08:23:40.436Z,66.20
2017-11-03T08:26:08.882Z,66.60
2017-11-03T08:28:37.325Z,66.70
2017-11-03T08:31:05.735Z,66.50
2017-11-03T08:33:34.603Z,67.50
2017-11-03T08:36:03.091Z,64.30
2017-11-03T08:38:31.526Z,62.00
2017-11-03T08:41:00.746Z,58.10
2017-11-03T08:43:29.197Z,58.10
2017-11-03T08:45:58.381Z,57.10
2017-11-03T08:48:26.814Z,57.10
2017-11-03T08:50:55.246Z,55.00
2017-11-03T08:53:23.652Z,55.30
2017-11-03T08:55:52.112Z,55.40
2017-11-03T08:58:20.529Z,55.70
2017-11-03T09:00:48.942Z,57.00
2017-11-03T09:03:17.389Z,57.10
2017-11-03T09:05:45.800Z,59.40
2017-11-03T09:08:13.877Z,57.10
2017-11-03T09:10:42.342Z,57.10
2017-11-03T09:13:10.764Z,58.60
2017-11-03T09:15:38.829Z,56.00
2017-11-03T09:18:07.274Z,57.30
2017-11-03T09:20:35.019Z,57.50
2017-11-03T09:23:03.034Z,56.10
2017-11-03T09:25:30.876Z,56.50
2017-11-03T09:27:59.016Z,56.90
2017-11-03T09:30:27.486Z,55.50
2017-11-03T09:32:56.188Z,55.40
2017-11-03T09:35:24.689Z,56.70
2017-11-03T09:37:53.038Z,56.70
2017-11-03T09:40:22.308Z,56.90
2017-11-03T09:42:50.816Z,56.90
2017-11-03T09:45:18.649Z,57.20
2017-11-03T09:47:47.153Z,56.60
2017-11-03T09:50:15.275Z,56.00
2017-11-03T09:52:43.797Z,57.10
2017-11-03T09:55:12.366Z,58.20
2017-11-03T09:57:40.835Z,57.20
2017-11-03T10:00:09.350Z,56.40
2017-11-03T10:02:37.837Z,56.40
2017-11-03T10:05:05.958Z,56.40
2017-11-03T10:07:34.440Z,57.50
2017-11-03T10:10:02.917Z,57.00
2017-11-03T10:12:31.309Z,57.40
2017-11-03T10:14:59.830Z,57.60
2017-11-03T10:17:28.314Z,57.40
2017-11-03T10:19:56.797Z,58.40
2017-11-03T10:22:25.343Z,55.70
2017-11-03T10:24:53.649Z,57.00
2017-11-03T10:27:22.114Z,51.50
2017-11-03T10:29:50.600Z,49.00
2017-11-03T10:32:19.105Z,44.00
2017-11-03T10:34:47.596Z,44.30
2017-11-03T10:37:16.042Z,45.20
2017-11-03T10:39:44.547Z,47.50
2017-11-03T10:42:13.007Z,48.20
2017-11-03T10:44:41.465Z,50.70
2017-11-03T10:47:09.955Z,52.10
2017-11-03T10:49:39.311Z,53.40
2017-11-03T10:52:07.127Z,54.30
2017-11-03T10:54:35.607Z,54.30
2017-11-03T10:57:04.082Z,55.10
2017-11-03T10:59:32.550Z,56.10
2017-11-03T11:02:01.075Z,55.70
2017-11-03T11:04:29.206Z,55.70
2017-11-03T11:06:57.904Z,56.50
2017-11-03T11:09:26.389Z,56.70
2017-11-03T11:11:54.881Z,56.90
2017-11-03T11:14:23.026Z,54.80
2017-11-03T11:16:51.492Z,54.90
2017-11-03T11:19:20.003Z,54.50
2017-11-03T11:21:48.221Z,54.10
2017-11-03T11:24:16.694Z,54.80
2017-11-03T11:26:45.144Z,56.70
2017-11-03T11:29:13.461Z,55.70
2017-11-03T11:31:42.004Z,55.00
2017-11-03T11:34:11.217Z,55.20
2017-11-03T11:36:39.991Z,54.70
2017-11-03T11:39:08.100Z,55.10
2017-11-03T11:41:35.846Z,55.30
2017-11-03T11:44:04.827Z,54.30
2017-11-03T11:46:32.601Z,53.90
2017-11-03T11:49:00.432Z,50.20
2017-11-03T11:51:29.008Z,49.40
2017-11-03T11:53:56.739Z,49.40
2017-11-03T11:56:25.366Z,48.40
2017-11-03T11:58:53.872Z,46.10
2017-11-03T12:01:22.561Z,47.20
2017-11-03T12:03:51.075Z,49.00
2017-11-03T12:06:18.829Z,49.00
2017-11-03T12:08:46.591Z,47.50
2017-11-03T12:11:14.750Z,47.80
2017-11-03T12:13:43.262Z,49.50
2017-11-03T12:16:11.357Z,49.40
2017-11-03T12:18:39.489Z,50.20
2017-11-03T12:21:07.252Z,50.30
2017-11-03T12:23:35.358Z,51.10
2017-11-03T12:26:03.142Z,50.70
2017-11-03T12:28:30.920Z,50.90
2017-11-03T12:30:59.673Z,53.30
2017-11-03T12:33:27.476Z,53.30
2017-11-03T12:35:55.232Z,49.40
2017-11-03T12:38:22.964Z,46.90
2017-11-03T12:40:55.550Z,44.70
2017-11-03T12:43:23.283Z,43.80
2017-11-03T12:45:51.794Z,39.30
2017-11-03T12:48:19.581Z,39.20
2017-11-03T12:50:47.694Z,37.30
2017-11-03T12:53:16.231Z,36.50
2017-11-03T12:55:44.011Z,36.50
2017-11-03T12:58:12.146Z,38.50
2017-11-03T13:00:39.897Z,40.80
2017-11-03T13:03:07.730Z,42.40
2017-11-03T13:05:35.478Z,44.80
2017-11-03T13:08:03.202Z,46.80
2017-11-03T13:10:31.338Z,48.00
2017-11-03T13:12:59.429Z,50.90
2017-11-03T13:15:28.039Z,50.80
2017-11-03T13:17:55.834Z,50.80
2017-11-03T13:20:23.448Z,51.20
2017-11-03T13:22:51.594Z,51.30
2017-11-03T13:25:19.733Z,51.60
2017-11-03T13:27:47.670Z,51.60
2017-11-03T13:30:15.463Z,51.80
2017-11-03T13:32:43.269Z,52.50
2017-11-03T13:35:11.788Z,53.00
2017-11-03T13:37:39.530Z,53.30
2017-11-03T13:40:07.921Z,54.40
2017-11-03T13:42:36.460Z,53.30
2017-11-03T13:45:04.231Z,53.30
2017-11-03T13:47:31.997Z,52.80
2017-11-03T13:50:00.113Z,51.80
2017-11-03T13:52:29.349Z,50.80
2017-11-03T13:54:57.881Z,50.80
2017-11-03T13:57:26.732Z,52.10
2017-11-03T13:59:55.170Z,52.00
2017-11-03T14:02:23.689Z,51.60
2017-11-03T14:04:51.430Z,51.40
2017-11-03T14:07:20.292Z,52.30
2017-11-03T14:09:49.603Z,51.90
2017-11-03T14:12:18.788Z,49.90
2017-11-03T14:14:47.228Z,49.90
2017-11-03T14:17:15.733Z,48.20
2017-11-03T14:19:44.194Z,47.30
2017-11-03T14:22:12.618Z,47.10
2017-11-03T14:24:41.078Z,47.00
2017-11-03T14:27:09.801Z,47.40
2017-11-03T14:29:39.016Z,50.00
2017-11-03T14:32:07.464Z,50.00
2017-11-03T14:34:35.917Z,50.00
2017-11-03T14:37:04.397Z,51.20
2017-11-03T14:39:32.841Z,52.10
2017-11-03T14:42:01.000Z,52.30
2017-11-03T14:44:30.262Z,54.50
2017-11-03T14:46:58.783Z,54.50
2017-11-03T14:49:27.207Z,54.50
2017-11-03T14:51:55.722Z,55.10
2017-11-03T14:54:24.149Z,55.90
2017-11-03T14:56:52.563Z,56.00
2017-11-03T14:59:21.004Z,57.10
2017-11-03T15:01:49.443Z,57.80
2017-11-03T15:04:17.939Z,58.50
2017-11-03T15:06:46.570Z,58.80
2017-11-03T15:09:15.066Z,59.10
2017-11-03T15:11:43.511Z,59.40
2017-11-03T15:14:12.034Z,60.00
2017-11-03T15:16:40.478Z,60.60
2017-11-03T15:19:08.958Z,61.10
2017-11-03T15:21:37.426Z,61.70
2017-11-03T15:24:06.627Z,62.50
2017-11-03T15:26:35.060Z,62.50
2017-11-03T15:29:03.788Z,63.10
2017-11-03T15:31:32.216Z,63.90
2017-11-03T15:34:00.638Z,65.10
2017-11-03T15:36:29.084Z,65.60
2017-11-03T15:38:57.526Z,67.10
2017-11-03T15:41:26.709Z,65.80
2017-11-03T15:43:55.139Z,65.80
2017-11-03T15:46:23.796Z,65.80
2017-11-03T15:48:52.222Z,68.30
2017-11-03T15:51:20.313Z,68.80
2017-11-03T15:53:48.754Z,70.40
2017-11-03T15:56:16.849Z,69.90
2017-11-03T15:58:45.266Z,70.60
2017-11-03T16:01:13.950Z,70.40
2017-11-03T16:03:43.138Z,70.20
2017-11-03T16:06:11.559Z,70.10
2017-11-03T16:08:40.758Z,71.20
2017-11-03T16:11:09.211Z,71.20
2017-11-03T16:13:38.873Z,72.50
2017-11-03T16:16:07.294Z,72.50
2017-11-03T16:18:35.998Z,72.70
2017-11-03T16:21:05.186Z,74.40
2017-11-03T16:23:33.594Z,74.30
2017-11-03T16:26:02.813Z,74.10
2017-11-03T16:28:31.242Z,74.10
2017-11-03T16:31:00.608Z,74.20
2017-11-03T16:33:29.097Z,73.70
2017-11-03T16:35:57.896Z,73.50
2017-11-03T16:38:26.359Z,73.90
2017-11-03T16:40:54.915Z,73.10
2017-11-03T16:43:24.162Z,72.50
2017-11-03T16:45:51.950Z,72.50
2017-11-03T16:48:20.492Z,72.40
2017-11-03T16:50:48.444Z,72.00
2017-11-03T16:53:16.931Z,72.80
2017-11-03T16:55:45.057Z,72.60
2017-11-03T16:58:13.566Z,72.20
2017-11-03T17:00:41.974Z,71.90
2017-11-03T17:03:10.419Z,72.50
2017-11-03T17:05:38.548Z,72.20
2017-11-03T17:08:07.042Z,71.70
2017-11-03T17:10:35.471Z,71.70
2017-11-03T17:13:03.548Z,72.10
2017-11-03T17:15:32.021Z,72.00
2017-11-03T17:18:00.819Z,72.30
2017-11-03T17:20:30.018Z,72.60
2017-11-03T17:22:58.751Z,72.60
2017-11-03T17:25:26.990Z,72.40
2017-11-03T17:27:55.718Z,73.20
2017-11-03T17:30:24.160Z,73.60
2017-11-03T17:32:52.580Z,74.00
2017-11-03T17:35:21.038Z,73.70
2017-11-03T17:37:50.538Z,73.60
2017-11-03T17:40:18.982Z,73.60
2017-11-03T17:42:47.691Z,74.10
2017-11-03T17:45:16.405Z,75.00
2017-11-03T17:47:45.907Z,74.90
2017-11-03T17:50:14.396Z,74.80
2017-11-03T17:52:42.963Z,74.70
2017-11-03T17:55:12.518Z,74.50
2017-11-03T17:57:41.213Z,74.50
2017-11-03T18:00:09.380Z,74.30
2017-11-03T18:02:38.188Z,74.20
2017-11-03T18:05:06.604Z,74.50
2017-11-03T18:07:35.359Z,74.60
2017-11-03T18:10:03.958Z,74.10
2017-11-03T18:12:32.403Z,74.30
2017-11-03T18:15:00.824Z,74.50
2017-11-03T18:17:29.526Z,75.30
2017-11-03T18:19:59.086Z,74.30
2017-11-03T18:22:27.893Z,74.30
2017-11-03T18:24:56.844Z,74.20
2017-11-03T18:27:25.574Z,75.30
2017-11-03T18:29:54.415Z,74.80
2017-11-03T18:32:23.485Z,74.80
2017-11-03T18:34:52.355Z,75.70
2017-11-03T18:37:21.292Z,75.00
2017-11-03T18:39:50.034Z,75.30
2017-11-03T18:42:18.765Z,75.80
2017-11-03T18:44:49.540Z,75.70
2017-11-03T18:47:19.568Z,76.10
2017-11-03T18:49:49.657Z,76.10
2017-11-03T18:52:20.598Z,76.00
2017-11-03T18:54:50.028Z,76.20
2017-11-03T18:57:20.049Z,75.60
2017-11-03T18:59:49.604Z,75.90
2017-11-03T19:02:20.854Z,75.90
2017-11-03T19:04:49.781Z,76.20
2017-11-03T19:07:18.346Z,76.20
2017-11-03T19:09:47.230Z,75.70
2017-11-03T19:12:16.112Z,75.10
2017-11-03T19:14:45.189Z,75.80
2017-11-03T19:17:14.696Z,76.60
2017-11-03T19:19:43.176Z,76.60
2017-11-03T19:22:12.671Z,76.50
2017-11-03T19:24:41.688Z,75.20
2017-11-03T19:27:10.203Z,75.20
2017-11-03T19:29:38.464Z,75.60
2017-11-03T19:32:07.258Z,75.30
2017-11-03T19:34:36.030Z,75.60
2017-11-03T19:37:04.817Z,75.90
2017-11-03T19:39:35.549Z,75.60
2017-11-03T19:42:04.710Z,75.60
2017-11-03T19:44:33.655Z,75.30
2017-11-03T19:47:02.147Z,76.10
2017-11-03T19:49:31.524Z,75.80
2017-11-03T19:51:59.759Z,75.70
2017-11-03T19:54:28.555Z,75.60
2017-11-03T19:56:57.941Z,76.00
2017-11-03T19:59:26.784Z,75.90
2017-11-03T20:01:55.320Z,76.00
2017-11-03T20:04:23.905Z,75.80
2017-11-03T20:06:52.540Z,76.50
2017-11-03T20:09:22.083Z,75.80
2017-11-03T20:11:50.850Z,75.80
2017-11-03T20:14:19.381Z,75.40
2017-11-03T20:16:49.593Z,75.30
2017-11-03T20:19:18.340Z,75.30
2017-11-03T20:21:47.137Z,75.30
2017-11-03T20:24:15.628Z,75.20
2017-11-03T20:26:44.516Z,75.40
2017-11-03T20:29:13.792Z,75.10
2017-11-03T20:31:44.142Z,75.40
2017-11-03T20:34:13.210Z,75.40
2017-11-03T20:36:42.256Z,75.60
2017-11-03T20:39:10.872Z,75.50
2017-11-03T20:41:39.673Z,75.70
2017-11-03T20:44:09.480Z,77.10
2017-11-03T20:46:38.288Z,76.70
2017-11-03T20:49:07.349Z,76.30
2017-11-03T20:51:36.141Z,76.20
2017-11-03T20:54:05.700Z,76.30
2017-11-03T20:56:36.447Z,76.30
2017-11-03T20:59:04.985Z,76.90
2017-11-03T21:01:33.727Z,75.30
2017-11-03T21:04:02.497Z,76.10
2017-11-03T21:06:31.302Z,77.40
2017-11-03T21:09:01.898Z,77.00
2017-11-03T21:11:31.406Z,76.80
2017-11-03T21:14:00.961Z,77.40
2017-11-03T21:16:30.515Z,77.20
2017-11-03T21:19:00.285Z,78.10
2017-11-03T21:21:28.830Z,78.20
2017-11-03T21:23:57.587Z,78.50
2017-11-03T21:26:26.384Z,78.00
2017-11-03T21:28:55.184Z,78.10
2017-11-03T21:31:24.016Z,78.00
2017-11-03T21:33:52.779Z,77.90
2017-11-03T21:36:21.878Z,77.90
2017-11-03T21:38:50.675Z,77.90
2017-11-03T21:41:20.750Z,78.30
2017-11-03T21:43:49.982Z,77.90
2017-11-03T21:46:18.756Z,78.00
2017-11-03T21:48:47.516Z,77.70
2017-11-03T21:51:17.056Z,77.70
2017-11-03T21:53:46.575Z,77.40
2017-11-03T21:56:15.536Z,77.40
2017-11-03T21:58:44.292Z,77.30
2017-11-03T22:01:13.023Z,77.00
2017-11-03T22:03:41.728Z,77.30
2017-11-03T22:06:11.271Z,76.80
2017-11-03T22:08:40.003Z,76.80
2017-11-03T22:11:08.820Z,77.10
2017-11-03T22:13:37.590Z,77.30
2017-11-03T22:16:07.082Z,77.40
2017-11-03T22:18:35.837Z,77.10
2017-11-03T22:21:04.793Z,77.90
2017-11-03T22:23:34.307Z,78.00
2017-11-03T22:26:03.891Z,77.50
2017-11-03T22:28:33.379Z,76.80
2017-11-03T22:31:02.114Z,76.80
2017-11-03T22:33:30.880Z,76.70
2017-11-03T22:35:59.615Z,76.30
2017-11-03T22:38:28.415Z,76.20
2017-11-03T22:40:57.243Z,76.30
2017-11-03T22:43:26.898Z,76.10
2017-11-03T22:45:55.707Z,76.10
2017-11-03T22:48:24.450Z,75.40
2017-11-03T22:50:54.079Z,76.00
2017-11-03T22:53:22.871Z,76.00
2017-11-03T22:55:51.638Z,76.00
2017-11-03T22:58:20.371Z,76.00
2017-11-03T23:00:49.123Z,76.30
2017-11-03T23:03:18.242Z,76.10
2017-11-03T23:05:46.967Z,77.00
2017-11-03T23:08:15.750Z,76.80
2017-11-03T23:10:44.505Z,78.00
2017-11-03T23:13:13.966Z,77.60
2017-11-03T23:15:42.734Z,77.60
2017-11-03T23:18:11.438Z,77.10
2017-11-03T23:20:40.561Z,77.50
2017-11-03T23:23:09.409Z,77.40
2017-11-03T23:25:38.958Z,78.30
2017-11-03T23:28:07.707Z,78.30
2017-11-03T23:30:36.434Z,78.00
2017-11-03T23:33:05.757Z,78.40
2017-11-03T23:35:34.521Z,77.80
2017-11-03T23:38:03.570Z,78.20
2017-11-03T23:40:32.308Z,78.10
2017-11-03T23:43:01.282Z,77.60
2017-11-03T23:45:31.310Z,77.60
2017-11-03T23:48:00.806Z,77.70
2017-11-03T23:50:29.506Z,77.70
2017-11-03T23:52:58.807Z,77.90
2017-11-03T23:55:28.387Z,77.50
2017-11-03T23:57:57.082Z,77.50
